sensor_id;sensor_type;location;lat;lon;timestamp;P1;durP1;ratioP1;P2;durP2;ratioP2
63326;SDS011;49452;48.366;10.926;2023-07-29T00:00:03;9.20;;;5.30;;
63326;SDS011;49452;48.366;10.926;2023-07-29T00:00:43;9.65;;;4.82;;
63326;SDS011;49452;48.366;10.926;2023-07-29T00:01:14;11.43;;;5.57;;
63326;SDS011;49452;48.366;10.926;2023-07-29T00:01:45;9.13;;;5.22;;
63326;SDS011;49452;48.366;10.926;2023-07-29T00:02:16;9.65;;;5.15;;
63326;SDS011;49452;48.366;10.926;2023-07-29T00:02:47;8.15;;;5.40;;
63326;SDS011;49452;48.366;10.926;2023-07-29T00:03:18;7.78;;;4.28;;
63326;SDS011;49452;48.366;10.926;2023-07-29T00:03:49;9.82;;;5.43;;
63326;SDS011;49452;48.366;10.926;2023-07-29T00:04:20;9.05;;;4.32;;
63326;SDS011;49452;48.366;10.926;2023-07-29T00:04:52;7.68;;;4.82;;
63326;SDS011;49452;48.366;10.926;2023-07-29T00:05:23;6.50;;;4.93;;
63326;SDS011;49452;48.366;10.926;2023-07-29T00:05:54;7.72;;;4.78;;
63326;SDS011;49452;48.366;10.926;2023-07-29T00:06:25;10.45;;;5.00;;
63326;SDS011;49452;48.366;10.926;2023-07-29T00:06:57;7.80;;;4.60;;
63326;SDS011;49452;48.366;10.926;2023-07-29T00:07:28;11.73;;;4.78;;
63326;SDS011;49452;48.366;10.926;2023-07-29T00:07:59;6.70;;;4.25;;
63326;SDS011;49452;48.366;10.926;2023-07-29T00:08:30;10.40;;;4.60;;
63326;SDS011;49452;48.366;10.926;2023-07-29T00:09:02;7.55;;;5.00;;
63326;SDS011;49452;48.366;10.926;2023-07-29T00:09:33;8.73;;;5.05;;
63326;SDS011;49452;48.366;10.926;2023-07-29T00:10:04;8.32;;;4.70;;
63326;SDS011;49452;48.366;10.926;2023-07-29T00:10:36;10.05;;;4.53;;
63326;SDS011;49452;48.366;10.926;2023-07-29T00:11:08;11.20;;;5.00;;
63326;SDS011;49452;48.366;10.926;2023-07-29T00:11:39;10.48;;;5.30;;
63326;SDS011;49452;48.366;10.926;2023-07-29T00:12:10;12.38;;;5.70;;
63326;SDS011;49452;48.366;10.926;2023-07-29T00:12:41;8.95;;;4.88;;
63326;SDS011;49452;48.366;10.926;2023-07-29T00:13:12;8.68;;;5.65;;
63326;SDS011;49452;48.366;10.926;2023-07-29T00:13:43;8.32;;;5.18;;
63326;SDS011;49452;48.366;10.926;2023-07-29T00:14:14;10.30;;;5.75;;
63326;SDS011;49452;48.366;10.926;2023-07-29T00:14:45;8.57;;;4.72;;
63326;SDS011;49452;48.366;10.926;2023-07-29T00:15:17;5.90;;;5.00;;
63326;SDS011;49452;48.366;10.926;2023-07-29T00:15:48;11.45;;;5.50;;
63326;SDS011;49452;48.366;10.926;2023-07-29T00:16:19;14.07;;;5.72;;
63326;SDS011;49452;48.366;10.926;2023-07-29T00:16:52;10.88;;;4.55;;
63326;SDS011;49452;48.366;10.926;2023-07-29T00:17:23;9.45;;;5.40;;
63326;SDS011;49452;48.366;10.926;2023-07-29T00:17:54;10.77;;;5.63;;
63326;SDS011;49452;48.366;10.926;2023-07-29T00:18:25;10.10;;;5.35;;
63326;SDS011;49452;48.366;10.926;2023-07-29T00:18:58;11.07;;;4.70;;
63326;SDS011;49452;48.366;10.926;2023-07-29T00:19:29;10.35;;;5.30;;
63326;SDS011;49452;48.366;10.926;2023-07-29T00:20:00;7.97;;;5.53;;
63326;SDS011;49452;48.366;10.926;2023-07-29T00:20:31;13.02;;;5.47;;
63326;SDS011;49452;48.366;10.926;2023-07-29T00:21:02;9.93;;;4.70;;
63326;SDS011;49452;48.366;10.926;2023-07-29T00:21:33;13.45;;;5.90;;
63326;SDS011;49452;48.366;10.926;2023-07-29T00:22:05;9.85;;;5.10;;
63326;SDS011;49452;48.366;10.926;2023-07-29T00:22:36;7.53;;;5.05;;
63326;SDS011;49452;48.366;10.926;2023-07-29T00:23:07;12.25;;;5.30;;
63326;SDS011;49452;48.366;10.926;2023-07-29T00:23:38;7.40;;;5.00;;
63326;SDS011;49452;48.366;10.926;2023-07-29T00:24:09;7.93;;;5.45;;
63326;SDS011;49452;48.366;10.926;2023-07-29T00:24:40;12.68;;;6.25;;
63326;SDS011;49452;48.366;10.926;2023-07-29T00:25:12;8.18;;;5.30;;
63326;SDS011;49452;48.366;10.926;2023-07-29T00:25:43;7.93;;;5.65;;
63326;SDS011;49452;48.366;10.926;2023-07-29T00:26:14;11.65;;;5.45;;
63326;SDS011;49452;48.366;10.926;2023-07-29T00:26:45;10.02;;;5.78;;
63326;SDS011;49452;48.366;10.926;2023-07-29T00:27:16;12.13;;;6.00;;
63326;SDS011;49452;48.366;10.926;2023-07-29T00:27:47;9.00;;;5.65;;
63326;SDS011;49452;48.366;10.926;2023-07-29T00:28:18;9.77;;;5.97;;
63326;SDS011;49452;48.366;10.926;2023-07-29T00:28:49;8.40;;;5.53;;
63326;SDS011;49452;48.366;10.926;2023-07-29T00:29:20;9.65;;;5.70;;
63326;SDS011;49452;48.366;10.926;2023-07-29T00:29:51;10.00;;;5.93;;
63326;SDS011;49452;48.366;10.926;2023-07-29T00:30:22;7.60;;;5.78;;
63326;SDS011;49452;48.366;10.926;2023-07-29T00:30:53;14.85;;;5.90;;
63326;SDS011;49452;48.366;10.926;2023-07-29T00:31:24;9.15;;;6.18;;
63326;SDS011;49452;48.366;10.926;2023-07-29T00:31:55;9.60;;;6.20;;
63326;SDS011;49452;48.366;10.926;2023-07-29T00:32:29;10.55;;;6.65;;
63326;SDS011;49452;48.366;10.926;2023-07-29T00:33:00;11.48;;;5.63;;
63326;SDS011;49452;48.366;10.926;2023-07-29T00:33:31;11.20;;;5.90;;
63326;SDS011;49452;48.366;10.926;2023-07-29T00:34:03;13.40;;;6.00;;
63326;SDS011;49452;48.366;10.926;2023-07-29T00:34:34;12.50;;;6.63;;
63326;SDS011;49452;48.366;10.926;2023-07-29T00:35:06;15.18;;;5.97;;
63326;SDS011;49452;48.366;10.926;2023-07-29T00:35:37;10.70;;;6.40;;
63326;SDS011;49452;48.366;10.926;2023-07-29T00:36:08;13.10;;;6.63;;
63326;SDS011;49452;48.366;10.926;2023-07-29T00:36:39;8.35;;;5.60;;
63326;SDS011;49452;48.366;10.926;2023-07-29T00:37:10;12.73;;;6.60;;
63326;SDS011;49452;48.366;10.926;2023-07-29T00:37:42;9.98;;;6.68;;
63326;SDS011;49452;48.366;10.926;2023-07-29T00:38:14;12.90;;;6.90;;
63326;SDS011;49452;48.366;10.926;2023-07-29T00:38:45;10.23;;;5.82;;
63326;SDS011;49452;48.366;10.926;2023-07-29T00:39:16;10.57;;;5.90;;
63326;SDS011;49452;48.366;10.926;2023-07-29T00:39:47;10.07;;;6.15;;
63326;SDS011;49452;48.366;10.926;2023-07-29T00:40:21;9.75;;;6.15;;
63326;SDS011;49452;48.366;10.926;2023-07-29T00:40:53;11.48;;;5.30;;
63326;SDS011;49452;48.366;10.926;2023-07-29T00:41:24;10.40;;;5.97;;
63326;SDS011;49452;48.366;10.926;2023-07-29T00:41:56;10.85;;;6.00;;
63326;SDS011;49452;48.366;10.926;2023-07-29T00:42:27;9.15;;;5.80;;
63326;SDS011;49452;48.366;10.926;2023-07-29T00:42:58;12.15;;;6.78;;
63326;SDS011;49452;48.366;10.926;2023-07-29T00:43:29;14.15;;;6.47;;
63326;SDS011;49452;48.366;10.926;2023-07-29T00:44:00;14.20;;;6.53;;
63326;SDS011;49452;48.366;10.926;2023-07-29T00:44:31;10.80;;;5.93;;
63326;SDS011;49452;48.366;10.926;2023-07-29T00:45:05;13.23;;;5.97;;
63326;SDS011;49452;48.366;10.926;2023-07-29T00:45:38;11.77;;;6.10;;
63326;SDS011;49452;48.366;10.926;2023-07-29T00:46:11;12.27;;;7.28;;
63326;SDS011;49452;48.366;10.926;2023-07-29T00:46:43;13.05;;;6.78;;
63326;SDS011;49452;48.366;10.926;2023-07-29T00:47:16;12.30;;;6.47;;
63326;SDS011;49452;48.366;10.926;2023-07-29T00:47:47;15.00;;;7.35;;
63326;SDS011;49452;48.366;10.926;2023-07-29T00:48:18;11.95;;;6.75;;
63326;SDS011;49452;48.366;10.926;2023-07-29T00:48:49;17.10;;;7.28;;
63326;SDS011;49452;48.366;10.926;2023-07-29T00:49:21;8.88;;;5.97;;
63326;SDS011;49452;48.366;10.926;2023-07-29T00:49:52;11.98;;;6.07;;
63326;SDS011;49452;48.366;10.926;2023-07-29T00:50:23;14.93;;;6.53;;
63326;SDS011;49452;48.366;10.926;2023-07-29T00:50:54;14.38;;;7.20;;
63326;SDS011;49452;48.366;10.926;2023-07-29T00:51:25;13.13;;;7.40;;
63326;SDS011;49452;48.366;10.926;2023-07-29T00:51:56;16.63;;;7.13;;
63326;SDS011;49452;48.366;10.926;2023-07-29T00:52:29;14.98;;;6.70;;
63326;SDS011;49452;48.366;10.926;2023-07-29T00:53:01;9.50;;;6.18;;
63326;SDS011;49452;48.366;10.926;2023-07-29T00:53:32;12.75;;;6.38;;
63326;SDS011;49452;48.366;10.926;2023-07-29T00:54:03;12.27;;;6.97;;
63326;SDS011;49452;48.366;10.926;2023-07-29T00:54:34;10.73;;;7.07;;
63326;SDS011;49452;48.366;10.926;2023-07-29T00:55:05;10.98;;;6.75;;
63326;SDS011;49452;48.366;10.926;2023-07-29T00:55:37;14.80;;;7.03;;
63326;SDS011;49452;48.366;10.926;2023-07-29T00:56:08;12.65;;;6.13;;
63326;SDS011;49452;48.366;10.926;2023-07-29T00:56:40;8.48;;;6.35;;
63326;SDS011;49452;48.366;10.926;2023-07-29T00:57:11;9.50;;;6.45;;
63326;SDS011;49452;48.366;10.926;2023-07-29T00:57:44;12.10;;;6.28;;
63326;SDS011;49452;48.366;10.926;2023-07-29T00:58:19;10.95;;;7.38;;
63326;SDS011;49452;48.366;10.926;2023-07-29T00:58:50;12.48;;;6.72;;
63326;SDS011;49452;48.366;10.926;2023-07-29T00:59:22;9.95;;;6.78;;
63326;SDS011;49452;48.366;10.926;2023-07-29T00:59:53;10.48;;;7.28;;
63326;SDS011;49452;48.366;10.926;2023-07-29T01:09:39;11.75;;;6.63;;
63326;SDS011;49452;48.366;10.926;2023-07-29T01:11:33;11.55;;;7.25;;
63326;SDS011;49452;48.366;10.926;2023-07-29T01:12:49;11.07;;;6.20;;
63326;SDS011;49452;48.366;10.926;2023-07-29T01:14:21;14.55;;;7.28;;
63326;SDS011;49452;48.366;10.926;2023-07-29T01:15:45;11.97;;;6.77;;
63326;SDS011;49452;48.366;10.926;2023-07-29T01:16:25;15.32;;;6.88;;
63326;SDS011;49452;48.366;10.926;2023-07-29T01:17:03;12.63;;;6.90;;
63326;SDS011;49452;48.366;10.926;2023-07-29T01:17:42;12.88;;;7.68;;
63326;SDS011;49452;48.366;10.926;2023-07-29T01:18:49;14.93;;;6.68;;
63326;SDS011;49452;48.366;10.926;2023-07-29T01:20:21;11.65;;;7.15;;
63326;SDS011;49452;48.366;10.926;2023-07-29T01:20:58;14.35;;;7.40;;
63326;SDS011;49452;48.366;10.926;2023-07-29T01:21:31;15.00;;;6.88;;
63326;SDS011;49452;48.366;10.926;2023-07-29T01:22:02;15.88;;;7.85;;
63326;SDS011;49452;48.366;10.926;2023-07-29T01:22:35;15.15;;;7.32;;
63326;SDS011;49452;48.366;10.926;2023-07-29T01:23:06;12.07;;;7.63;;
63326;SDS011;49452;48.366;10.926;2023-07-29T01:23:38;10.43;;;7.38;;
63326;SDS011;49452;48.366;10.926;2023-07-29T01:24:10;14.93;;;7.93;;
63326;SDS011;49452;48.366;10.926;2023-07-29T01:24:41;11.70;;;7.55;;
63326;SDS011;49452;48.366;10.926;2023-07-29T01:25:12;14.95;;;7.80;;
63326;SDS011;49452;48.366;10.926;2023-07-29T01:25:43;16.02;;;8.40;;
63326;SDS011;49452;48.366;10.926;2023-07-29T01:26:14;16.10;;;8.05;;
63326;SDS011;49452;48.366;10.926;2023-07-29T01:26:46;11.60;;;8.60;;
63326;SDS011;49452;48.366;10.926;2023-07-29T01:27:17;18.77;;;8.85;;
63326;SDS011;49452;48.366;10.926;2023-07-29T01:27:48;14.70;;;7.82;;
63326;SDS011;49452;48.366;10.926;2023-07-29T01:28:22;14.10;;;7.75;;
63326;SDS011;49452;48.366;10.926;2023-07-29T01:28:54;14.52;;;7.53;;
63326;SDS011;49452;48.366;10.926;2023-07-29T01:29:26;14.13;;;7.85;;
63326;SDS011;49452;48.366;10.926;2023-07-29T01:29:57;12.57;;;7.10;;
63326;SDS011;49452;48.366;10.926;2023-07-29T01:30:30;13.10;;;7.40;;
63326;SDS011;49452;48.366;10.926;2023-07-29T01:31:43;14.30;;;7.70;;
63326;SDS011;49452;48.366;10.926;2023-07-29T01:33:26;16.73;;;6.70;;
63326;SDS011;49452;48.366;10.926;2023-07-29T01:34:06;11.15;;;7.35;;
63326;SDS011;49452;48.366;10.926;2023-07-29T01:34:44;10.30;;;6.70;;
63326;SDS011;49452;48.366;10.926;2023-07-29T01:36:07;12.93;;;7.45;;
63326;SDS011;49452;48.366;10.926;2023-07-29T01:36:46;13.60;;;8.30;;
63326;SDS011;49452;48.366;10.926;2023-07-29T01:37:19;17.10;;;7.90;;
63326;SDS011;49452;48.366;10.926;2023-07-29T01:37:55;13.82;;;8.15;;
63326;SDS011;49452;48.366;10.926;2023-07-29T01:38:35;16.52;;;9.20;;
63326;SDS011;49452;48.366;10.926;2023-07-29T01:39:07;13.18;;;8.27;;
63326;SDS011;49452;48.366;10.926;2023-07-29T01:39:39;17.40;;;9.20;;
63326;SDS011;49452;48.366;10.926;2023-07-29T01:40:11;21.40;;;9.82;;
63326;SDS011;49452;48.366;10.926;2023-07-29T01:40:42;17.95;;;9.98;;
63326;SDS011;49452;48.366;10.926;2023-07-29T01:41:13;21.60;;;9.70;;
63326;SDS011;49452;48.366;10.926;2023-07-29T01:41:45;33.38;;;11.20;;
63326;SDS011;49452;48.366;10.926;2023-07-29T01:42:16;27.83;;;11.75;;
63326;SDS011;49452;48.366;10.926;2023-07-29T01:42:48;29.90;;;12.88;;
63326;SDS011;49452;48.366;10.926;2023-07-29T01:43:19;23.88;;;11.85;;
63326;SDS011;49452;48.366;10.926;2023-07-29T01:43:54;16.42;;;9.50;;
63326;SDS011;49452;48.366;10.926;2023-07-29T01:44:26;16.55;;;9.75;;
63326;SDS011;49452;48.366;10.926;2023-07-29T01:44:58;19.00;;;8.60;;
63326;SDS011;49452;48.366;10.926;2023-07-29T01:45:30;13.88;;;8.05;;
63326;SDS011;49452;48.366;10.926;2023-07-29T01:46:02;17.13;;;8.80;;
63326;SDS011;49452;48.366;10.926;2023-07-29T01:46:33;20.88;;;10.20;;
63326;SDS011;49452;48.366;10.926;2023-07-29T01:47:04;22.70;;;10.43;;
63326;SDS011;49452;48.366;10.926;2023-07-29T01:47:35;20.35;;;10.73;;
63326;SDS011;49452;48.366;10.926;2023-07-29T01:48:08;19.75;;;10.73;;
63326;SDS011;49452;48.366;10.926;2023-07-29T01:48:40;17.15;;;8.75;;
63326;SDS011;49452;48.366;10.926;2023-07-29T01:49:11;16.33;;;9.10;;
63326;SDS011;49452;48.366;10.926;2023-07-29T01:49:42;15.30;;;8.55;;
63326;SDS011;49452;48.366;10.926;2023-07-29T01:50:13;13.98;;;9.10;;
63326;SDS011;49452;48.366;10.926;2023-07-29T01:50:44;20.80;;;9.48;;
63326;SDS011;49452;48.366;10.926;2023-07-29T01:51:15;13.88;;;8.38;;
63326;SDS011;49452;48.366;10.926;2023-07-29T01:51:46;15.98;;;9.20;;
63326;SDS011;49452;48.366;10.926;2023-07-29T01:52:17;15.82;;;9.07;;
63326;SDS011;49452;48.366;10.926;2023-07-29T01:52:48;11.55;;;7.50;;
63326;SDS011;49452;48.366;10.926;2023-07-29T01:53:19;14.23;;;8.40;;
63326;SDS011;49452;48.366;10.926;2023-07-29T01:53:50;12.93;;;7.68;;
63326;SDS011;49452;48.366;10.926;2023-07-29T01:54:22;15.05;;;8.60;;
63326;SDS011;49452;48.366;10.926;2023-07-29T01:54:53;13.23;;;8.43;;
63326;SDS011;49452;48.366;10.926;2023-07-29T01:55:24;15.32;;;8.98;;
63326;SDS011;49452;48.366;10.926;2023-07-29T01:55:55;15.98;;;8.63;;
63326;SDS011;49452;48.366;10.926;2023-07-29T01:56:27;18.33;;;8.57;;
63326;SDS011;49452;48.366;10.926;2023-07-29T01:57:00;14.70;;;9.13;;
63326;SDS011;49452;48.366;10.926;2023-07-29T01:57:31;22.73;;;8.50;;
63326;SDS011;49452;48.366;10.926;2023-07-29T01:58:02;17.52;;;9.07;;
63326;SDS011;49452;48.366;10.926;2023-07-29T01:58:34;14.05;;;7.85;;
63326;SDS011;49452;48.366;10.926;2023-07-29T01:59:05;12.75;;;8.30;;
63326;SDS011;49452;48.366;10.926;2023-07-29T01:59:36;12.27;;;7.35;;
63326;SDS011;49452;48.366;10.926;2023-07-29T02:00:07;18.08;;;9.02;;
63326;SDS011;49452;48.366;10.926;2023-07-29T02:00:45;12.55;;;8.13;;
63326;SDS011;49452;48.366;10.926;2023-07-29T02:01:16;12.52;;;7.63;;
63326;SDS011;49452;48.366;10.926;2023-07-29T02:01:47;16.20;;;7.47;;
63326;SDS011;49452;48.366;10.926;2023-07-29T02:02:19;12.30;;;7.45;;
63326;SDS011;49452;48.366;10.926;2023-07-29T02:02:50;13.80;;;8.07;;
63326;SDS011;49452;48.366;10.926;2023-07-29T02:03:21;17.67;;;8.25;;
63326;SDS011;49452;48.366;10.926;2023-07-29T02:03:52;12.70;;;7.45;;
63326;SDS011;49452;48.366;10.926;2023-07-29T02:04:25;10.60;;;7.50;;
63326;SDS011;49452;48.366;10.926;2023-07-29T02:04:56;16.02;;;8.15;;
63326;SDS011;49452;48.366;10.926;2023-07-29T02:05:28;14.10;;;7.57;;
63326;SDS011;49452;48.366;10.926;2023-07-29T02:05:59;16.08;;;8.23;;
63326;SDS011;49452;48.366;10.926;2023-07-29T02:06:30;13.60;;;7.88;;
63326;SDS011;49452;48.366;10.926;2023-07-29T02:07:01;15.00;;;8.07;;
63326;SDS011;49452;48.366;10.926;2023-07-29T02:07:32;12.63;;;7.60;;
63326;SDS011;49452;48.366;10.926;2023-07-29T02:08:03;14.57;;;8.82;;
63326;SDS011;49452;48.366;10.926;2023-07-29T02:08:34;13.55;;;6.80;;
63326;SDS011;49452;48.366;10.926;2023-07-29T02:09:05;12.18;;;8.52;;
63326;SDS011;49452;48.366;10.926;2023-07-29T02:09:36;15.40;;;7.35;;
63326;SDS011;49452;48.366;10.926;2023-07-29T02:10:07;14.00;;;7.13;;
63326;SDS011;49452;48.366;10.926;2023-07-29T02:10:40;13.38;;;7.53;;
63326;SDS011;49452;48.366;10.926;2023-07-29T02:11:11;11.27;;;7.38;;
63326;SDS011;49452;48.366;10.926;2023-07-29T02:11:43;12.75;;;7.68;;
63326;SDS011;49452;48.366;10.926;2023-07-29T02:12:14;11.43;;;7.88;;
63326;SDS011;49452;48.366;10.926;2023-07-29T02:12:45;12.73;;;8.20;;
63326;SDS011;49452;48.366;10.926;2023-07-29T02:13:16;15.63;;;8.05;;
63326;SDS011;49452;48.366;10.926;2023-07-29T02:13:47;18.02;;;7.50;;
63326;SDS011;49452;48.366;10.926;2023-07-29T02:14:18;10.25;;;6.50;;
63326;SDS011;49452;48.366;10.926;2023-07-29T02:14:49;13.32;;;7.63;;
63326;SDS011;49452;48.366;10.926;2023-07-29T02:15:20;12.43;;;6.95;;
63326;SDS011;49452;48.366;10.926;2023-07-29T02:15:51;13.48;;;7.63;;
63326;SDS011;49452;48.366;10.926;2023-07-29T02:16:23;15.57;;;7.82;;
63326;SDS011;49452;48.366;10.926;2023-07-29T02:16:55;14.27;;;7.32;;
63326;SDS011;49452;48.366;10.926;2023-07-29T02:17:26;15.52;;;7.82;;
63326;SDS011;49452;48.366;10.926;2023-07-29T02:17:57;14.75;;;7.43;;
63326;SDS011;49452;48.366;10.926;2023-07-29T02:18:29;13.25;;;8.02;;
63326;SDS011;49452;48.366;10.926;2023-07-29T02:19:01;13.52;;;7.50;;
63326;SDS011;49452;48.366;10.926;2023-07-29T02:19:32;13.18;;;7.28;;
63326;SDS011;49452;48.366;10.926;2023-07-29T02:20:03;14.30;;;7.47;;
63326;SDS011;49452;48.366;10.926;2023-07-29T02:20:34;13.88;;;8.73;;
63326;SDS011;49452;48.366;10.926;2023-07-29T02:21:05;11.23;;;6.93;;
63326;SDS011;49452;48.366;10.926;2023-07-29T02:21:37;8.70;;;6.57;;
63326;SDS011;49452;48.366;10.926;2023-07-29T02:22:08;13.35;;;8.00;;
63326;SDS011;49452;48.366;10.926;2023-07-29T02:22:40;9.77;;;6.65;;
63326;SDS011;49452;48.366;10.926;2023-07-29T02:23:11;13.45;;;6.65;;
63326;SDS011;49452;48.366;10.926;2023-07-29T02:23:42;11.18;;;7.55;;
63326;SDS011;49452;48.366;10.926;2023-07-29T02:24:13;13.38;;;7.32;;
63326;SDS011;49452;48.366;10.926;2023-07-29T02:24:44;14.07;;;7.15;;
63326;SDS011;49452;48.366;10.926;2023-07-29T02:25:16;14.80;;;6.57;;
63326;SDS011;49452;48.366;10.926;2023-07-29T02:25:47;12.90;;;6.93;;
63326;SDS011;49452;48.366;10.926;2023-07-29T02:26:18;11.60;;;5.55;;
63326;SDS011;49452;48.366;10.926;2023-07-29T02:26:49;13.82;;;6.65;;
63326;SDS011;49452;48.366;10.926;2023-07-29T02:27:20;11.02;;;6.57;;
63326;SDS011;49452;48.366;10.926;2023-07-29T02:27:51;13.75;;;6.55;;
63326;SDS011;49452;48.366;10.926;2023-07-29T02:28:22;14.45;;;7.15;;
63326;SDS011;49452;48.366;10.926;2023-07-29T02:28:53;11.88;;;6.72;;
63326;SDS011;49452;48.366;10.926;2023-07-29T02:29:24;14.07;;;7.07;;
63326;SDS011;49452;48.366;10.926;2023-07-29T02:29:56;18.73;;;7.50;;
63326;SDS011;49452;48.366;10.926;2023-07-29T02:30:27;12.18;;;6.93;;
63326;SDS011;49452;48.366;10.926;2023-07-29T02:31:17;15.90;;;6.68;;
63326;SDS011;49452;48.366;10.926;2023-07-29T02:31:51;10.48;;;6.95;;
63326;SDS011;49452;48.366;10.926;2023-07-29T02:32:22;10.80;;;6.90;;
63326;SDS011;49452;48.366;10.926;2023-07-29T02:32:53;16.73;;;7.50;;
63326;SDS011;49452;48.366;10.926;2023-07-29T02:33:24;11.57;;;6.95;;
63326;SDS011;49452;48.366;10.926;2023-07-29T02:33:55;14.13;;;7.32;;
63326;SDS011;49452;48.366;10.926;2023-07-29T02:34:26;18.80;;;7.20;;
63326;SDS011;49452;48.366;10.926;2023-07-29T02:34:57;10.85;;;6.38;;
63326;SDS011;49452;48.366;10.926;2023-07-29T02:35:29;12.25;;;7.40;;
63326;SDS011;49452;48.366;10.926;2023-07-29T02:36:00;17.95;;;6.63;;
63326;SDS011;49452;48.366;10.926;2023-07-29T02:36:31;12.15;;;6.68;;
63326;SDS011;49452;48.366;10.926;2023-07-29T02:37:03;15.25;;;7.45;;
63326;SDS011;49452;48.366;10.926;2023-07-29T02:37:34;12.77;;;6.90;;
63326;SDS011;49452;48.366;10.926;2023-07-29T02:38:05;11.45;;;6.13;;
63326;SDS011;49452;48.366;10.926;2023-07-29T02:38:36;13.55;;;6.90;;
63326;SDS011;49452;48.366;10.926;2023-07-29T02:39:07;12.40;;;6.97;;
63326;SDS011;49452;48.366;10.926;2023-07-29T02:39:38;16.55;;;7.88;;
63326;SDS011;49452;48.366;10.926;2023-07-29T02:40:09;14.07;;;7.13;;
63326;SDS011;49452;48.366;10.926;2023-07-29T02:40:41;15.18;;;6.90;;
63326;SDS011;49452;48.366;10.926;2023-07-29T02:41:12;16.50;;;7.40;;
63326;SDS011;49452;48.366;10.926;2023-07-29T02:41:43;12.55;;;6.78;;
63326;SDS011;49452;48.366;10.926;2023-07-29T02:42:14;13.55;;;6.75;;
63326;SDS011;49452;48.366;10.926;2023-07-29T02:42:46;14.95;;;6.68;;
63326;SDS011;49452;48.366;10.926;2023-07-29T02:43:17;8.90;;;6.72;;
63326;SDS011;49452;48.366;10.926;2023-07-29T02:43:48;11.73;;;6.78;;
63326;SDS011;49452;48.366;10.926;2023-07-29T02:44:20;13.45;;;6.30;;
63326;SDS011;49452;48.366;10.926;2023-07-29T02:44:51;10.20;;;6.60;;
63326;SDS011;49452;48.366;10.926;2023-07-29T02:45:22;17.70;;;7.32;;
63326;SDS011;49452;48.366;10.926;2023-07-29T02:45:53;16.85;;;6.80;;
63326;SDS011;49452;48.366;10.926;2023-07-29T02:46:24;17.65;;;7.68;;
63326;SDS011;49452;48.366;10.926;2023-07-29T02:46:55;9.35;;;6.47;;
63326;SDS011;49452;48.366;10.926;2023-07-29T02:47:26;15.93;;;7.05;;
63326;SDS011;49452;48.366;10.926;2023-07-29T02:47:58;11.23;;;7.18;;
63326;SDS011;49452;48.366;10.926;2023-07-29T02:48:29;12.70;;;6.70;;
63326;SDS011;49452;48.366;10.926;2023-07-29T02:49:01;9.23;;;6.68;;
63326;SDS011;49452;48.366;10.926;2023-07-29T02:49:33;11.63;;;6.45;;
63326;SDS011;49452;48.366;10.926;2023-07-29T02:50:04;16.63;;;6.93;;
63326;SDS011;49452;48.366;10.926;2023-07-29T02:50:35;10.40;;;6.25;;
63326;SDS011;49452;48.366;10.926;2023-07-29T02:51:07;12.05;;;6.85;;
63326;SDS011;49452;48.366;10.926;2023-07-29T02:51:38;12.25;;;7.43;;
63326;SDS011;49452;48.366;10.926;2023-07-29T02:52:09;13.50;;;6.82;;
63326;SDS011;49452;48.366;10.926;2023-07-29T02:52:40;11.43;;;6.30;;
63326;SDS011;49452;48.366;10.926;2023-07-29T02:53:11;15.82;;;7.00;;
63326;SDS011;49452;48.366;10.926;2023-07-29T02:53:42;13.43;;;7.10;;
63326;SDS011;49452;48.366;10.926;2023-07-29T02:54:13;11.70;;;6.82;;
63326;SDS011;49452;48.366;10.926;2023-07-29T02:54:44;10.10;;;6.50;;
63326;SDS011;49452;48.366;10.926;2023-07-29T02:55:15;13.60;;;7.85;;
63326;SDS011;49452;48.366;10.926;2023-07-29T02:55:46;15.18;;;7.40;;
63326;SDS011;49452;48.366;10.926;2023-07-29T02:56:17;14.40;;;7.00;;
63326;SDS011;49452;48.366;10.926;2023-07-29T02:56:49;15.88;;;7.20;;
63326;SDS011;49452;48.366;10.926;2023-07-29T02:57:21;10.65;;;6.07;;
63326;SDS011;49452;48.366;10.926;2023-07-29T02:57:52;10.15;;;6.50;;
63326;SDS011;49452;48.366;10.926;2023-07-29T02:58:23;12.70;;;6.78;;
63326;SDS011;49452;48.366;10.926;2023-07-29T02:58:54;12.80;;;6.53;;
63326;SDS011;49452;48.366;10.926;2023-07-29T02:59:26;10.88;;;6.80;;
63326;SDS011;49452;48.366;10.926;2023-07-29T02:59:57;10.65;;;6.88;;
63326;SDS011;49452;48.366;10.926;2023-07-29T03:00:30;9.90;;;6.60;;
63326;SDS011;49452;48.366;10.926;2023-07-29T03:01:02;10.60;;;6.55;;
63326;SDS011;49452;48.366;10.926;2023-07-29T03:01:34;9.98;;;6.38;;
63326;SDS011;49452;48.366;10.926;2023-07-29T03:02:05;9.38;;;6.60;;
63326;SDS011;49452;48.366;10.926;2023-07-29T03:02:36;13.77;;;6.55;;
63326;SDS011;49452;48.366;10.926;2023-07-29T03:03:07;10.13;;;7.07;;
63326;SDS011;49452;48.366;10.926;2023-07-29T03:03:39;13.15;;;6.75;;
63326;SDS011;49452;48.366;10.926;2023-07-29T03:04:10;16.25;;;7.43;;
63326;SDS011;49452;48.366;10.926;2023-07-29T03:04:43;11.70;;;6.63;;
63326;SDS011;49452;48.366;10.926;2023-07-29T03:05:14;11.27;;;7.28;;
63326;SDS011;49452;48.366;10.926;2023-07-29T03:05:46;15.48;;;6.43;;
63326;SDS011;49452;48.366;10.926;2023-07-29T03:06:17;12.98;;;6.65;;
63326;SDS011;49452;48.366;10.926;2023-07-29T03:06:48;14.90;;;6.85;;
63326;SDS011;49452;48.366;10.926;2023-07-29T03:07:19;12.40;;;5.82;;
63326;SDS011;49452;48.366;10.926;2023-07-29T03:07:51;19.33;;;7.43;;
63326;SDS011;49452;48.366;10.926;2023-07-29T03:08:22;14.70;;;6.82;;
63326;SDS011;49452;48.366;10.926;2023-07-29T03:08:53;15.88;;;6.40;;
63326;SDS011;49452;48.366;10.926;2023-07-29T03:09:24;9.07;;;6.25;;
63326;SDS011;49452;48.366;10.926;2023-07-29T03:09:55;17.27;;;6.47;;
63326;SDS011;49452;48.366;10.926;2023-07-29T03:10:26;13.82;;;7.25;;
63326;SDS011;49452;48.366;10.926;2023-07-29T03:11:05;12.10;;;6.30;;
63326;SDS011;49452;48.366;10.926;2023-07-29T03:11:38;15.65;;;7.05;;
63326;SDS011;49452;48.366;10.926;2023-07-29T03:12:09;14.80;;;6.20;;
63326;SDS011;49452;48.366;10.926;2023-07-29T03:12:40;13.05;;;6.50;;
63326;SDS011;49452;48.366;10.926;2023-07-29T03:13:11;18.23;;;6.88;;
63326;SDS011;49452;48.366;10.926;2023-07-29T03:13:42;11.20;;;7.25;;
63326;SDS011;49452;48.366;10.926;2023-07-29T03:14:14;11.07;;;6.80;;
63326;SDS011;49452;48.366;10.926;2023-07-29T03:14:47;12.43;;;6.80;;
63326;SDS011;49452;48.366;10.926;2023-07-29T03:15:19;14.18;;;6.68;;
63326;SDS011;49452;48.366;10.926;2023-07-29T03:15:53;8.30;;;6.20;;
63326;SDS011;49452;48.366;10.926;2023-07-29T03:16:24;12.80;;;6.35;;
63326;SDS011;49452;48.366;10.926;2023-07-29T03:17:01;15.23;;;6.35;;
63326;SDS011;49452;48.366;10.926;2023-07-29T03:17:33;10.43;;;6.22;;
63326;SDS011;49452;48.366;10.926;2023-07-29T03:18:04;11.18;;;6.10;;
63326;SDS011;49452;48.366;10.926;2023-07-29T03:18:35;9.65;;;5.50;;
63326;SDS011;49452;48.366;10.926;2023-07-29T03:19:07;11.32;;;5.57;;
63326;SDS011;49452;48.366;10.926;2023-07-29T03:19:38;13.45;;;5.95;;
63326;SDS011;49452;48.366;10.926;2023-07-29T03:20:09;9.90;;;6.13;;
63326;SDS011;49452;48.366;10.926;2023-07-29T03:20:40;12.50;;;6.90;;
63326;SDS011;49452;48.366;10.926;2023-07-29T03:21:12;11.23;;;6.50;;
63326;SDS011;49452;48.366;10.926;2023-07-29T03:21:43;11.32;;;6.25;;
63326;SDS011;49452;48.366;10.926;2023-07-29T03:22:14;13.15;;;6.45;;
63326;SDS011;49452;48.366;10.926;2023-07-29T03:22:45;11.82;;;6.40;;
63326;SDS011;49452;48.366;10.926;2023-07-29T03:23:17;9.23;;;5.95;;